Time;durP1;ratioP1;P1;durP2;ratioP2;P2;SDS_P1;SDS_P2;PMS_P1;PMS_P2;Temp;Humidity;BMP_temperature;BMP_pressure;BME280_temperature;BME280_humidity;BME280_pressure;Samples;Min_cycle;Max_cycle;Signal;HPM_P1;HPM_P2
2023/05/17 01:01:53;;;;;;;25.48;6.72;;;10.40;99.90;;;;;;5926740;23;20020;31
2023/05/17 01:04:25;;;;;;;17.08;5.13;;;10.40;99.90;;;;;;5074981;23;34960;-82
2023/05/17 01:13:05;;;;;;;23.73;5.68;;;10.40;99.90;;;;;;5604300;23;20020;-81
2023/05/17 01:19:24;;;;;;;18.77;5.30;;;10.50;99.90;;;;;;5608901;23;20060;-83
2023/05/17 01:27:48;;;;;;;28.80;5.80;;;10.40;99.90;;;;;;4868135;23;21039;-84
2023/05/17 01:30:36;;;;;;;18.92;5.80;;;10.40;99.90;;;;;;4878569;29;39359;-81
2023/05/17 01:33:46;;;;;;;15.27;4.70;;;10.40;99.90;;;;;;4858016;29;38642;-83
2023/05/17 01:38:49;;;;;;;22.63;5.80;;;10.50;99.90;;;;;;5484436;24;20026;-83
2023/05/17 01:49:36;;;;;;;24.40;5.72;;;10.50;99.90;;;;;;5713021;23;20034;-81
2023/05/17 02:00:59;;;;;;;17.23;5.63;;;10.70;99.90;;;;;;5149396;23;20041;-82
2023/05/17 02:06:06;;;;;;;25.25;6.20;;;10.70;99.90;;;;;;5458428;23;20039;-82
2023/05/17 02:19:49;;;;;;;25.58;5.68;;;10.60;99.90;;;;;;5173043;23;20046;-83
2023/05/17 02:41:22;;;;;;;22.00;5.40;;;10.70;99.90;;;;;;5995561;23;20023;31
2023/05/17 02:44:01;;;;;;;19.42;5.90;;;10.80;99.90;;;;;;5077077;23;36748;-81
2023/05/17 03:10:40;;;;;;;28.08;7.65;;;11.00;99.90;;;;;;4883902;29;20038;-83
2023/05/17 03:16:11;;;;;;;19.37;4.57;;;11.00;99.90;;;;;;5484953;23;20027;-81
2023/05/17 03:35:41;;;;;;;17.40;4.97;;;10.90;99.90;;;;;;5026000;23;20063;-82
2023/05/17 03:38:29;;;;;;;19.48;4.55;;;10.90;99.90;;;;;;4903833;29;38640;-83
2023/05/17 03:46:38;;;;;;;23.60;4.72;;;10.80;99.90;;;;;;5315753;23;20057;-82
2023/05/17 03:51:44;;;;;;;17.08;4.80;;;10.80;99.90;;;;;;5918559;23;20020;-81
2023/05/17 03:54:22;;;;;;;21.08;4.97;;;10.80;99.90;;;;;;4886006;29;36071;-82
2023/05/17 03:56:57;;;;;;;19.10;4.68;;;10.80;99.90;;;;;;5424068;23;40066;-82
2023/05/17 03:59:27;;;;;;;23.25;5.68;;;10.80;99.90;;;;;;5282140;23;38891;-81
2023/05/17 04:07:12;;;;;;;15.55;4.40;;;10.70;99.90;;;;;;5356277;23;20058;-82
2023/05/17 04:09:38;;;;;;;21.92;5.25;;;10.70;99.90;;;;;;4936753;23;38577;-81
2023/05/17 04:23:25;;;;;;;18.17;4.43;;;10.80;99.90;;;;;;4884264;29;19909;-83
2023/05/17 04:25:51;;;;;;;23.92;5.72;;;10.90;99.90;;;;;;5004999;23;37929;-84
2023/05/17 04:28:29;;;;;;;21.67;5.63;;;10.80;99.90;;;;;;5623034;23;38879;-82
2023/05/17 04:31:17;;;;;;;24.45;5.30;;;10.80;99.90;;;;;;5061821;23;38890;31
2023/05/17 04:33:58;;;;;;;15.90;5.80;;;10.70;99.90;;;;;;4880523;29;38376;-83
2023/05/17 04:42:23;;;;;;;17.65;5.55;;;10.80;99.90;;;;;;4439856;23;19923;-83
2023/05/17 04:47:58;;;;;;;13.52;4.93;;;10.90;99.90;;;;;;5291013;23;20050;-83
2023/05/17 04:53:20;;;;;;;15.88;5.47;;;10.90;99.90;;;;;;5040341;23;38779;-82
2023/05/17 05:03:35;;;;;;;20.10;4.88;;;11.20;99.90;;;;;;5158539;23;20223;-82
2023/05/17 05:06:02;;;;;;;18.73;4.18;;;11.20;99.90;;;;;;5230239;23;40157;-82
2023/05/17 05:08:38;;;;;;;20.92;4.43;;;11.20;99.90;;;;;;5364942;23;20060;-82
2023/05/17 05:19:49;;;;;;;16.30;3.40;;;11.20;99.90;;;;;;5481593;23;20051;-83
2023/05/17 05:22:24;;;;;;;19.75;3.33;;;11.40;99.90;;;;;;4900904;29;39904;-81
2023/05/17 05:27:52;;;;;;;15.63;3.63;;;11.50;99.90;;;;;;5519111;23;20057;-82
2023/05/17 06:17:59;;;;;;;19.15;2.83;;;13.80;99.90;;;;;;4720682;27;20200;-83
2023/05/17 07:04:55;;;;;;;11.73;2.30;;;14.60;99.90;;;;;;5840021;23;21006;-83
2023/05/17 07:16:21;;;;;;;18.70;3.28;;;15.40;99.90;;;;;;4969998;23;20045;-84
2023/05/17 07:18:47;;;;;;;19.33;2.90;;;15.40;99.90;;;;;;4872950;29;39077;-84
2023/05/17 07:21:14;;;;;;;14.48;2.85;;;15.60;99.90;;;;;;4874350;29;37299;-87
2023/05/17 07:23:40;;;;;;;12.32;2.42;;;15.70;99.90;;;;;;4871869;29;37513;-86
2023/05/17 07:26:06;;;;;;;14.18;2.83;;;15.90;99.90;;;;;;4866785;29;37910;-85
2023/05/17 07:28:34;;;;;;;15.15;2.75;;;16.00;99.90;;;;;;4870885;29;37619;-86
2023/05/17 07:31:00;;;;;;;13.68;2.30;;;15.90;99.90;;;;;;4871093;29;37456;-86
2023/05/17 07:33:37;;;;;;;14.00;2.38;;;15.40;99.90;;;;;;4873299;29;39274;-84
2023/05/17 07:36:30;;;;;;;10.00;2.35;;;14.80;99.90;;;;;;4866346;29;41492;-82
2023/05/17 07:42:20;;;;;;;14.85;2.13;;;14.70;99.90;;;;;;5040712;23;20038;-85
2023/05/17 07:44:58;;;;;;;11.50;2.33;;;15.10;99.90;;;;;;4895204;29;47975;-84
2023/05/17 07:47:26;;;;;;;15.70;2.92;;;15.60;99.90;;;;;;4858220;29;38020;-87
2023/05/17 07:49:52;;;;;;;15.27;2.35;;;15.70;99.90;;;;;;4872417;29;38395;-85
2023/05/17 07:52:18;;;;;;;15.07;3.13;;;15.60;99.90;;;;;;4866357;29;37741;-85
2023/05/17 07:54:51;;;;;;;17.00;3.15;;;15.30;99.90;;;;;;4878178;29;38143;-83
2023/05/17 07:57:19;;;;;;;14.00;2.75;;;14.90;99.90;;;;;;4884911;29;38245;-83
2023/05/17 08:00:12;;;;;;;19.38;3.80;;;14.60;99.90;;;;;;4893944;29;37766;-82
2023/05/17 08:05:52;;;;;;;17.60;3.20;;;14.20;99.90;;;;;;5522900;23;20029;-85
2023/05/17 08:08:19;;;;;;;20.73;3.08;;;14.60;99.90;;;;;;4999530;23;37851;-84
2023/05/17 08:10:46;;;;;;;12.43;2.33;;;15.00;99.90;;;;;;4879914;29;38940;-85
2023/05/17 08:13:12;;;;;;;20.98;3.13;;;15.60;99.90;;;;;;4872044;29;36481;-85
2023/05/17 08:15:38;;;;;;;10.93;2.33;;;15.60;99.90;;;;;;4886096;29;37404;-84
2023/05/17 08:18:04;;;;;;;13.27;2.28;;;15.50;99.90;;;;;;4867358;29;39908;-87
2023/05/17 08:20:30;;;;;;;14.85;2.72;;;15.70;99.90;;;;;;4865090;29;39628;-84
2023/05/17 08:22:57;;;;;;;18.13;2.70;;;16.00;99.90;;;;;;4867723;29;35572;-86
2023/05/17 08:25:23;;;;;;;15.32;2.90;;;16.30;99.90;;;;;;4863885;29;40556;-84
2023/05/17 08:27:49;;;;;;;13.90;2.42;;;16.20;99.90;;;;;;4867371;29;39331;-85
2023/05/17 08:30:15;;;;;;;16.40;3.10;;;16.20;99.90;;;;;;4860485;29;38061;-90
2023/05/17 08:32:41;;;;;;;9.10;1.80;;;16.30;99.90;;;;;;4857885;29;36197;-87
2023/05/17 08:35:07;;;;;;;9.70;2.50;;;16.40;99.90;;;;;;4856680;29;36318;-85
2023/05/17 08:37:33;;;;;;;12.38;2.30;;;16.60;99.90;;;;;;4850914;29;37709;-86
2023/05/17 08:40:00;;;;;;;12.40;2.17;;;16.50;99.90;;;;;;4855699;29;40567;-87
2023/05/17 08:42:28;;;;;;;12.77;2.17;;;16.20;99.90;;;;;;4863526;29;35932;-85
2023/05/17 08:44:54;;;;;;;8.88;2.33;;;16.20;99.90;;;;;;4864460;29;39434;-86
2023/05/17 08:47:32;;;;;;;13.05;2.10;;;16.30;99.90;;;;;;4863851;29;37732;-86
2023/05/17 08:50:04;;;;;;;7.05;1.90;;;16.50;99.90;;;;;;4865422;29;37594;-85
2023/05/17 08:52:31;;;;;;;11.27;2.27;;;16.20;99.90;;;;;;4865520;29;39078;-86
2023/05/17 08:54:59;;;;;;;8.05;1.73;;;16.30;99.90;;;;;;4865473;29;37702;-85
2023/05/17 08:57:27;;;;;;;12.20;2.15;;;16.60;99.90;;;;;;4868007;29;39570;-86
2023/05/17 08:59:54;;;;;;;12.25;1.83;;;16.50;99.90;;;;;;4867137;29;36894;-86
2023/05/17 09:02:22;;;;;;;9.73;1.90;;;16.50;99.90;;;;;;4865769;29;39392;-85
2023/05/17 09:04:54;;;;;;;7.18;1.70;;;16.90;99.90;;;;;;4867135;29;37631;-85
2023/05/17 09:07:23;;;;;;;;;;;16.80;99.90;;;;;;4860946;29;38188;-85
2023/05/17 09:09:53;;;;;;;10.98;2.10;;;16.80;99.90;;;;;;4866095;29;38666;-85
2023/05/17 09:12:22;;;;;;;5.82;1.80;;;17.00;99.90;;;;;;4863204;29;36156;-87
2023/05/17 09:14:48;;;;;;;12.65;1.60;;;16.70;99.90;;;;;;4862689;29;36954;-85
2023/05/17 09:17:19;;;;;;;7.65;1.95;;;16.70;99.90;;;;;;4861508;29;38939;-87
2023/05/17 09:19:47;;;;;;;9.05;1.65;;;16.90;99.90;;;;;;4860774;29;39906;-86
2023/05/17 09:22:20;;;;;;;9.65;2.15;;;16.70;99.90;;;;;;4859796;29;36622;-84
2023/05/17 09:24:46;;;;;;;7.55;1.98;;;16.80;99.90;;;;;;4861210;29;38060;-85
2023/05/17 09:27:17;;;;;;;8.63;1.33;;;17.10;99.90;;;;;;4863736;29;39146;-85
2023/05/17 09:29:46;;;;;;;5.88;1.40;;;17.50;99.90;;;;;;4868724;29;38422;-86
2023/05/17 09:32:15;;;;;;;6.25;1.40;;;17.90;99.90;;;;;;4865139;29;37788;-85
2023/05/17 09:34:44;;;;;;;7.57;1.48;;;17.90;99.90;;;;;;4865846;29;37842;-86
2023/05/17 09:37:18;;;;;;;5.05;1.15;;;18.00;99.90;;;;;;4875150;29;39011;-86
2023/05/17 09:39:46;;;;;;;9.48;1.55;;;18.10;99.90;;;;;;4869338;29;37321;-86
2023/05/17 09:42:13;;;;;;;7.70;2.10;;;17.80;99.90;;;;;;4879395;29;35981;-89
2023/05/17 09:44:56;;;;;;;7.88;1.63;;;17.40;99.90;;;;;;4868483;29;38650;-86
2023/05/17 09:47:27;;;;;;;4.90;1.40;;;17.10;99.90;;;;;;4863012;29;38919;-86
2023/05/17 09:49:59;;;;;;;9.63;1.70;;;17.10;99.90;;;;;;4868811;29;39365;-88
2023/05/17 09:52:30;;;;;;;9.07;1.67;;;17.20;99.90;;;;;;4868589;29;37262;-88
2023/05/17 09:54:58;;;;;;;4.75;1.33;;;17.40;99.90;;;;;;4866738;29;38898;-87
2023/05/17 09:57:35;;;;;;;8.20;1.30;;;17.20;99.90;;;;;;4865754;29;38930;-88
2023/05/17 10:00:04;;;;;;;6.57;1.48;;;17.10;99.90;;;;;;4866134;29;38032;-88
2023/05/17 10:02:34;;;;;;;6.68;2.13;;;17.20;99.90;;;;;;4865741;29;39636;-87
2023/05/17 10:05:07;;;;;;;8.52;1.40;;;17.50;99.90;;;;;;4871532;29;39792;-89
2023/05/17 10:07:35;;;;;;;10.25;1.80;;;17.60;99.90;;;;;;4866873;29;48427;-87
2023/05/17 10:10:02;;;;;;;4.18;1.15;;;17.80;99.90;;;;;;4864445;29;37291;-87
2023/05/17 10:12:32;;;;;;;7.93;1.45;;;18.00;99.90;;;;;;4867192;29;36188;-89
2023/05/17 10:14:59;;;;;;;8.55;1.40;;;17.70;99.90;;;;;;4866381;29;38251;-87
2023/05/17 10:17:30;;;;;;;6.97;1.13;;;18.10;99.90;;;;;;4859656;29;38216;-86
2023/05/17 10:19:57;;;;;;;8.55;1.65;;;18.50;99.90;;;;;;4882716;29;37292;-86
2023/05/17 10:22:23;;;;;;;9.77;1.70;;;18.50;99.90;;;;;;4863999;29;38912;-86
2023/05/17 10:24:50;;;;;;;16.20;1.85;;;18.40;99.90;;;;;;4854120;29;39134;-87
2023/05/17 10:27:16;;;;;;;4.43;1.40;;;18.00;99.90;;;;;;4860253;29;37285;-88
2023/05/17 10:29:43;;;;;;;10.13;1.85;;;18.00;99.90;;;;;;4862265;29;39198;-85
2023/05/17 10:32:13;;;;;;;7.68;1.42;;;18.20;99.90;;;;;;4864776;29;37629;-88
2023/05/17 10:34:39;;;;;;;6.93;1.58;;;18.10;99.90;;;;;;4863796;29;38530;-90
2023/05/17 10:37:06;;;;;;;6.72;1.30;;;18.20;99.90;;;;;;4866016;29;37913;-88
2023/05/17 10:39:37;;;;;;;9.55;1.58;;;18.60;99.90;;;;;;4871045;29;39198;-85
2023/05/17 10:42:07;;;;;;;7.10;1.30;;;18.40;99.90;;;;;;4865893;29;36089;-84
2023/05/17 10:44:35;;;;;;;7.03;1.50;;;18.80;99.90;;;;;;4865101;29;38368;-85
2023/05/17 10:47:01;;;;;;;5.45;1.15;;;18.40;99.90;;;;;;4881709;29;37210;-86
2023/05/17 10:49:32;;;;;;;8.75;1.58;;;17.90;99.90;;;;;;4864001;29;47446;-86
2023/05/17 10:52:16;;;;;;;5.67;1.30;;;18.40;99.90;;;;;;4867731;29;36136;-86
2023/05/17 10:54:44;;;;;;;7.10;1.85;;;18.50;99.90;;;;;;4864642;29;47847;-86
2023/05/17 10:57:21;;;;;;;4.38;1.35;;;18.40;99.90;;;;;;4864612;29;37339;-86
2023/05/17 10:59:58;;;;;;;4.50;1.10;;;18.30;99.90;;;;;;4873280;29;37625;-85
2023/05/17 11:02:27;;;;;;;5.25;1.40;;;18.10;99.90;;;;;;4864075;29;37574;-83
2023/05/17 11:04:59;;;;;;;5.72;1.20;;;18.40;99.90;;;;;;4871174;29;37902;-87
2023/05/17 11:07:31;;;;;;;5.43;1.52;;;18.20;99.90;;;;;;4866711;29;39625;-86
2023/05/17 11:10:05;;;;;;;6.70;1.42;;;18.10;99.90;;;;;;4881890;29;37491;-83
2023/05/17 11:12:35;;;;;;;7.15;1.60;;;18.50;99.90;;;;;;4862288;29;47486;-85
2023/05/17 11:15:15;;;;;;;5.05;1.33;;;18.60;99.90;;;;;;4865196;29;37711;-86
2023/05/17 11:17:52;;;;;;;6.15;1.15;;;18.20;99.90;;;;;;4867728;29;47086;-83
2023/05/17 11:20:24;;;;;;;5.18;1.38;;;18.30;99.90;;;;;;4873587;29;37571;-85
2023/05/17 11:22:58;;;;;;;7.60;1.52;;;18.40;99.90;;;;;;4874540;29;36661;-83
2023/05/17 11:25:31;;;;;;;13.20;1.85;;;18.30;99.90;;;;;;4864534;29;37968;-85
2023/05/17 11:27:58;;;;;;;10.35;1.85;;;18.00;99.90;;;;;;4864411;29;39078;-83
2023/05/17 11:30:27;;;;;;;9.02;1.40;;;18.20;99.90;;;;;;4867613;29;37505;-85
2023/05/17 11:32:58;;;;;;;8.20;1.65;;;18.30;99.90;;;;;;4871657;29;35110;-84
2023/05/17 11:35:34;;;;;;;6.87;1.70;;;18.40;99.90;;;;;;4872868;29;38102;-86
2023/05/17 11:38:20;;;;;;;8.38;1.35;;;18.30;99.90;;;;;;4870223;29;36601;-88
2023/05/17 11:40:49;;;;;;;7.65;1.60;;;18.60;99.90;;;;;;4868936;29;47056;-83
2023/05/17 11:43:21;;;;;;;7.15;1.77;;;18.30;99.90;;;;;;4859860;29;37359;-83
2023/05/17 11:45:49;;;;;;;11.05;1.83;;;18.30;99.90;;;;;;4873104;29;37833;-85
2023/05/17 11:48:17;;;;;;;14.15;1.88;;;18.70;99.90;;;;;;4871016;29;38876;-83
2023/05/17 11:50:44;;;;;;;12.55;1.60;;;18.40;99.90;;;;;;4872117;29;38027;-84
2023/05/17 11:53:11;;;;;;;8.32;1.80;;;18.40;99.90;;;;;;4870373;29;36428;-83
2023/05/17 11:55:40;;;;;;;8.65;1.75;;;18.40;99.90;;;;;;4885187;29;38090;-83
2023/05/17 11:58:08;;;;;;;11.20;1.88;;;18.70;99.90;;;;;;4873483;29;38395;-84
2023/05/17 12:00:36;;;;;;;5.25;1.67;;;19.00;99.90;;;;;;4873920;29;39631;-85
2023/05/17 12:03:23;;;;;;;7.97;1.90;;;18.60;99.90;;;;;;4868623;29;37394;-84
2023/05/17 12:05:59;;;;;;;8.80;2.38;;;18.30;99.90;;;;;;4872610;29;38287;-84
2023/05/17 12:08:25;;;;;;;4.75;1.40;;;18.40;99.90;;;;;;4868106;29;37905;-86
2023/05/17 12:10:52;;;;;;;8.77;2.08;;;18.30;99.90;;;;;;4875195;29;38533;-85
2023/05/17 12:13:19;;;;;;;7.63;1.70;;;18.30;99.90;;;;;;4868153;29;36538;-85
2023/05/17 12:15:58;;;;;;;7.80;1.75;;;18.40;99.90;;;;;;4888352;29;37740;-85
2023/05/17 12:18:42;;;;;;;12.13;2.03;;;18.40;99.90;;;;;;4868816;29;37877;-84
2023/05/17 12:21:11;;;;;;;9.95;1.58;;;18.70;99.90;;;;;;4877324;29;37420;-83
2023/05/17 12:23:40;;;;;;;4.68;1.58;;;18.90;99.90;;;;;;4869720;29;36027;-85
2023/05/17 12:26:25;;;;;;;7.70;1.73;;;19.10;99.90;;;;;;4867913;29;38477;-84
2023/05/17 12:28:57;;;;;;;4.07;1.42;;;18.70;99.90;;;;;;4890398;29;39356;-84
2023/05/17 12:31:35;;;;;;;8.52;2.47;;;18.60;99.90;;;;;;4871842;29;37510;-84
2023/05/17 12:34:05;;;;;;;4.30;1.83;;;18.50;99.90;;;;;;4873233;29;36494;-84
2023/05/17 12:36:36;;;;;;;12.85;2.25;;;18.30;99.90;;;;;;4886724;29;40004;-85
2023/05/17 12:39:05;;;;;;;5.13;1.58;;;18.30;99.90;;;;;;4892483;29;38584;-84
2023/05/17 12:41:31;;;;;;;8.45;2.08;;;18.20;99.90;;;;;;4873775;29;37527;-84
2023/05/17 12:43:57;;;;;;;8.07;1.63;;;18.10;99.90;;;;;;4872955;29;38319;-83
2023/05/17 12:46:24;;;;;;;6.30;1.52;;;18.40;99.90;;;;;;4869600;29;39245;-86
2023/05/17 12:48:51;;;;;;;10.48;1.83;;;18.20;99.90;;;;;;4874006;29;38119;-85
2023/05/17 12:51:20;;;;;;;5.53;1.52;;;18.20;99.90;;;;;;4871898;29;37540;-85
2023/05/17 12:53:58;;;;;;;8.40;1.75;;;18.40;99.90;;;;;;4872493;29;36150;-85
2023/05/17 12:56:28;;;;;;;9.73;2.00;;;18.50;99.90;;;;;;4872582;29;37818;-84
2023/05/17 12:59:10;;;;;;;9.48;2.28;;;18.40;99.90;;;;;;4872165;29;38991;-85
2023/05/17 13:01:47;;;;;;;7.15;1.38;;;18.70;99.90;;;;;;4881117;29;47110;-85
2023/05/17 13:04:16;;;;;;;9.50;1.70;;;18.50;99.90;;;;;;4874023;29;37929;-86
2023/05/17 13:06:53;;;;;;;11.43;1.70;;;18.20;99.90;;;;;;4877390;29;37936;-85
2023/05/17 13:09:22;;;;;;;8.90;2.53;;;18.50;99.90;;;;;;4868597;29;37204;-84
2023/05/17 13:11:55;;;;;;;5.35;1.67;;;18.70;99.90;;;;;;4872898;29;37659;-85
2023/05/17 13:14:36;;;;;;;8.80;2.15;;;18.30;99.90;;;;;;4872171;29;37505;-85
2023/05/17 13:17:10;;;;;;;7.82;1.80;;;18.30;99.90;;;;;;4875911;29;38703;-84
2023/05/17 13:19:37;;;;;;;8.93;1.65;;;18.30;99.90;;;;;;4871569;29;48679;-83
2023/05/17 13:22:06;;;;;;;5.70;1.75;;;18.40;99.90;;;;;;4873543;29;37832;-83
2023/05/17 13:24:34;;;;;;;9.88;1.92;;;18.40;99.90;;;;;;4869139;29;36217;-85
2023/05/17 13:27:01;;;;;;;6.93;1.15;;;18.00;99.90;;;;;;4870333;29;38742;-86
2023/05/17 13:29:28;;;;;;;9.32;1.95;;;18.10;99.90;;;;;;4867024;29;47220;-87
2023/05/17 13:31:54;;;;;;;10.50;1.60;;;18.00;99.90;;;;;;4876387;29;37295;-88
2023/05/17 13:34:20;;;;;;;8.10;1.83;;;17.90;99.90;;;;;;4870260;29;35996;-87
2023/05/17 13:36:47;;;;;;;11.32;1.73;;;17.50;99.90;;;;;;4877933;29;39212;-85
2023/05/17 13:39:15;;;;;;;7.85;1.98;;;17.20;99.90;;;;;;4875844;29;38207;-86
2023/05/17 13:41:41;;;;;;;8.68;1.65;;;17.50;99.90;;;;;;4871899;29;37296;-87
2023/05/17 13:44:08;;;;;;;9.25;1.83;;;18.10;99.90;;;;;;4870063;29;37651;-86
2023/05/17 13:46:35;;;;;;;9.60;1.65;;;18.20;99.90;;;;;;4874947;29;37355;-86
2023/05/17 13:49:03;;;;;;;5.65;1.60;;;18.20;99.90;;;;;;4867765;29;37873;-84
2023/05/17 13:51:38;;;;;;;14.20;1.92;;;17.90;99.90;;;;;;4874118;29;38455;-85
2023/05/17 13:54:08;;;;;;;7.65;1.63;;;17.70;99.90;;;;;;4882205;29;36428;-82
2023/05/17 13:56:34;;;;;;;7.50;1.80;;;17.60;99.90;;;;;;4881613;29;39846;-85
2023/05/17 13:59:00;;;;;;;9.23;2.30;;;18.00;99.90;;;;;;4874066;29;38000;-86
2023/05/17 14:01:26;;;;;;;6.03;1.48;;;18.00;99.90;;;;;;4873079;29;47327;-85
2023/05/17 14:03:54;;;;;;;10.38;1.85;;;18.20;99.90;;;;;;4878171;29;36660;-87
2023/05/17 14:06:20;;;;;;;6.57;1.73;;;18.30;99.90;;;;;;4873008;29;39976;-84
2023/05/17 14:08:46;;;;;;;7.63;1.98;;;17.80;99.90;;;;;;4878782;29;38236;-84
2023/05/17 14:11:12;;;;;;;10.65;2.03;;;18.00;99.90;;;;;;4869794;29;38325;-85
2023/05/17 14:13:39;;;;;;;6.53;1.50;;;18.00;99.90;;;;;;4869850;29;37684;-85
2023/05/17 14:16:06;;;;;;;6.93;1.58;;;18.10;99.90;;;;;;4868369;29;38158;-85
2023/05/17 14:18:32;;;;;;;9.18;1.67;;;17.80;99.90;;;;;;4860645;29;39133;-86
2023/05/17 14:20:58;;;;;;;8.57;1.77;;;17.60;99.90;;;;;;4861319;29;37234;-85
2023/05/17 14:23:24;;;;;;;12.15;1.67;;;17.60;99.90;;;;;;4858605;29;35679;-84
2023/05/17 14:25:51;;;;;;;8.05;1.98;;;17.80;99.90;;;;;;4861850;29;38342;-85
2023/05/17 14:28:17;;;;;;;9.18;1.98;;;17.50;99.90;;;;;;4859433;29;38193;-86
2023/05/17 14:30:43;;;;;;;9.45;2.15;;;17.40;99.90;;;;;;4861653;29;37407;-85
2023/05/17 14:33:10;;;;;;;10.80;2.88;;;17.40;99.90;;;;;;4855536;29;37291;-85
2023/05/17 14:35:36;;;;;;;9.13;2.10;;;17.20;99.90;;;;;;4859015;29;38878;-85
2023/05/17 14:38:02;;;;;;;9.13;1.95;;;17.10;99.90;;;;;;4865328;29;39738;-86
2023/05/17 14:40:28;;;;;;;7.82;1.80;;;17.40;99.90;;;;;;4887207;29;38553;-85
2023/05/17 14:42:55;;;;;;;5.88;1.65;;;17.60;99.90;;;;;;4861551;29;37492;-86
2023/05/17 14:45:21;;;;;;;7.70;2.25;;;17.60;99.90;;;;;;4861903;29;37094;-86
2023/05/17 14:47:47;;;;;;;10.43;1.50;;;17.60;99.90;;;;;;4861607;29;37842;-84
2023/05/17 14:50:13;;;;;;;9.23;1.55;;;17.40;99.90;;;;;;4862696;29;39767;-86
2023/05/17 14:52:40;;;;;;;8.98;2.08;;;17.50;99.90;;;;;;4862712;29;37800;-86
2023/05/17 14:55:07;;;;;;;15.40;2.03;;;17.50;99.90;;;;;;4866884;29;38973;-84
2023/05/17 14:57:33;;;;;;;8.05;1.85;;;17.60;99.90;;;;;;4859634;29;39353;-85
2023/05/17 15:00:00;;;;;;;5.90;1.65;;;17.20;99.90;;;;;;4859423;29;37211;-85
2023/05/17 15:02:26;;;;;;;10.73;2.08;;;17.20;99.90;;;;;;4860591;29;37028;-84
2023/05/17 15:04:52;;;;;;;12.10;2.47;;;16.90;99.90;;;;;;4861886;29;38581;-85
2023/05/17 15:07:18;;;;;;;6.18;1.67;;;17.10;99.90;;;;;;4880923;29;38376;-84
2023/05/17 15:09:44;;;;;;;48.08;3.83;;;16.80;99.90;;;;;;4858771;29;35106;-84
2023/05/17 15:12:12;;;;;;;7.80;1.65;;;17.20;99.90;;;;;;4857967;29;37852;-89
2023/05/17 15:14:39;;;;;;;11.07;1.92;;;17.30;99.90;;;;;;4862669;29;38271;-85
2023/05/17 15:17:05;;;;;;;11.02;1.50;;;17.00;99.90;;;;;;4859086;29;39871;-85
2023/05/17 15:19:31;;;;;;;9.10;1.80;;;17.10;99.90;;;;;;4861259;29;38069;-87
2023/05/17 15:21:58;;;;;;;9.10;1.83;;;17.10;99.90;;;;;;4864361;29;37521;-87
2023/05/17 15:24:24;;;;;;;8.20;2.00;;;17.20;99.90;;;;;;4859024;29;37910;-86
2023/05/17 15:26:50;;;;;;;7.28;1.95;;;17.00;99.90;;;;;;4858984;29;36217;-84
2023/05/17 15:29:17;;;;;;;6.80;1.83;;;16.90;99.90;;;;;;4853948;29;36464;-85
2023/05/17 15:31:43;;;;;;;7.88;1.55;;;16.70;99.90;;;;;;4858570;29;35876;-84
2023/05/17 15:34:09;;;;;;;6.10;1.73;;;16.90;99.90;;;;;;4857639;29;39465;-86
2023/05/17 15:36:35;;;;;;;7.68;1.90;;;16.90;99.90;;;;;;4860356;29;38546;-86
2023/05/17 15:39:02;;;;;;;10.20;2.15;;;16.80;99.90;;;;;;4860198;29;39343;-87
2023/05/17 15:41:30;;;;;;;8.23;1.70;;;16.80;99.90;;;;;;4849944;29;47054;-87
2023/05/17 15:43:57;;;;;;;12.70;1.85;;;16.90;99.90;;;;;;4860938;29;39480;-85
2023/05/17 15:46:23;;;;;;;11.38;2.25;;;16.80;99.90;;;;;;4859023;29;38050;-87
2023/05/17 15:48:49;;;;;;;10.82;2.13;;;16.80;99.90;;;;;;4859441;29;37322;-86
2023/05/17 15:51:15;;;;;;;10.80;1.98;;;16.50;99.90;;;;;;4864690;29;37076;-83
2023/05/17 15:53:43;;;;;;;8.40;2.08;;;16.30;99.90;;;;;;4860090;29;38617;-87
2023/05/17 15:56:10;;;;;;;8.20;1.85;;;16.30;99.90;;;;;;4862630;29;39029;-87
2023/05/17 15:58:36;;;;;;;12.18;2.33;;;16.20;99.90;;;;;;4883569;29;37633;-87
2023/05/17 16:01:03;;;;;;;8.05;1.90;;;16.30;99.90;;;;;;4868379;29;36132;-87
2023/05/17 16:03:30;;;;;;;10.40;2.25;;;16.10;99.90;;;;;;4872658;29;38588;-87
2023/05/17 16:05:56;;;;;;;7.18;1.95;;;16.20;99.90;;;;;;4867653;29;38877;-85
2023/05/17 16:08:22;;;;;;;6.97;1.88;;;16.10;99.90;;;;;;4864505;29;37050;-80
2023/05/17 16:10:48;;;;;;;11.13;2.28;;;16.40;99.90;;;;;;4863985;29;37399;-83
2023/05/17 16:13:15;;;;;;;11.35;2.33;;;16.50;99.90;;;;;;4883855;29;37833;-85
2023/05/17 16:15:41;;;;;;;10.18;1.75;;;16.70;99.90;;;;;;4869482;29;37812;-82
2023/05/17 16:18:09;;;;;;;9.20;1.90;;;16.40;99.90;;;;;;4866087;29;38274;-82
2023/05/17 16:20:36;;;;;;;5.68;1.95;;;16.50;99.90;;;;;;4872050;29;35611;-84
2023/05/17 16:23:02;;;;;;;7.20;1.88;;;16.20;99.90;;;;;;4870031;29;39418;-84
2023/05/17 16:25:28;;;;;;;17.85;2.45;;;15.70;99.90;;;;;;4871935;29;38113;-81
2023/05/17 16:27:54;;;;;;;9.20;2.28;;;15.40;99.90;;;;;;4869687;29;38556;-79
2023/05/17 16:30:59;;;;;;;8.90;2.03;;;15.60;99.90;;;;;;4864456;29;37050;-83
2023/05/17 16:33:45;;;;;;;8.68;1.77;;;15.80;99.90;;;;;;4885461;29;38407;-83
2023/05/17 16:36:11;;;;;;;9.98;2.20;;;15.50;99.90;;;;;;4881215;29;40408;-82
2023/05/17 16:41:38;;;;;;;7.63;2.15;;;15.20;99.90;;;;;;5564085;23;20058;-84
2023/05/17 16:44:05;;;;;;;17.50;4.28;;;15.00;99.90;;;;;;5282592;23;39349;-83
2023/05/17 16:49:07;;;;;;;14.13;2.95;;;15.00;99.90;;;;;;5494620;23;20050;-81
2023/05/17 16:51:33;;;;;;;11.80;2.70;;;15.10;99.90;;;;;;4925201;23;37007;-83
2023/05/17 16:53:59;;;;;;;15.30;2.88;;;15.00;99.90;;;;;;4939711;23;41696;-81
2023/05/17 16:56:26;;;;;;;9.73;1.88;;;15.10;99.90;;;;;;5044741;23;37869;-81
2023/05/17 16:59:07;;;;;;;8.57;2.28;;;15.10;99.90;;;;;;4897367;29;37716;-82
2023/05/17 17:07:28;;;;;;;13.68;2.55;;;14.90;99.90;;;;;;5530650;23;20046;-84
2023/05/17 17:12:53;;;;;;;12.35;2.63;;;14.80;99.90;;;;;;5486112;23;20034;-84
2023/05/17 17:15:32;;;;;;;7.97;2.45;;;14.60;99.90;;;;;;4880028;29;38089;-82
2023/05/17 17:21:37;;;;;;;11.55;2.67;;;14.50;99.90;;;;;;4877777;29;50087;-81
2023/05/17 17:26:58;;;;;;;10.98;3.00;;;14.20;99.90;;;;;;4993376;23;20034;-82
2023/05/17 17:29:49;;;;;;;10.70;2.47;;;14.10;99.90;;;;;;4897567;29;39150;-83
2023/05/17 17:32:16;;;;;;;14.52;2.70;;;14.00;99.90;;;;;;4905398;29;38356;-82
2023/05/17 17:35:00;;;;;;;13.75;2.33;;;13.90;99.90;;;;;;4893545;29;38848;-82
2023/05/17 17:51:27;;;;;;;15.95;2.40;;;13.60;99.90;;;;;;5996994;23;21074;31
2023/05/17 18:01:43;;;;;;;14.80;2.70;;;13.30;99.90;;;;;;5771636;23;20058;-81
2023/05/17 18:04:15;;;;;;;13.88;2.80;;;13.20;99.90;;;;;;4890854;29;38787;-81
2023/05/17 18:06:46;;;;;;;13.77;2.22;;;13.20;99.90;;;;;;4895438;29;38754;-82
2023/05/17 18:12:42;;;;;;;10.02;2.22;;;13.10;99.90;;;;;;4892772;29;50795;-82
2023/05/17 18:15:12;;;;;;;10.05;2.50;;;13.00;99.90;;;;;;4899406;29;37519;-83
2023/05/17 18:17:38;;;;;;;15.52;2.13;;;13.00;99.90;;;;;;4900453;29;37726;-83
2023/05/17 18:20:07;;;;;;;14.60;2.97;;;12.90;99.90;;;;;;4895717;29;40192;-81
2023/05/17 18:22:33;;;;;;;16.98;2.65;;;12.80;99.90;;;;;;4887039;29;49316;-81
2023/05/17 18:25:17;;;;;;;20.25;3.08;;;12.70;99.90;;;;;;4894354;29;36955;-82
2023/05/17 18:27:43;;;;;;;9.68;2.05;;;12.60;99.90;;;;;;4892084;29;47506;-81
2023/05/17 18:30:10;;;;;;;15.10;3.20;;;12.50;99.90;;;;;;4905739;29;38495;-80
2023/05/17 18:32:53;;;;;;;16.77;2.50;;;12.50;99.90;;;;;;4892373;29;38731;-84
2023/05/17 18:38:49;;;;;;;15.38;2.17;;;12.30;99.90;;;;;;4901073;29;50834;-82
2023/05/17 18:41:18;;;;;;;14.50;2.40;;;12.20;99.90;;;;;;4883769;29;39181;-82
2023/05/17 18:43:49;;;;;;;13.55;2.63;;;12.20;99.90;;;;;;4892739;29;39345;-81
2023/05/17 18:46:21;;;;;;;13.05;2.33;;;12.10;99.90;;;;;;4888078;29;39620;-81
2023/05/17 18:49:06;;;;;;;12.18;2.35;;;12.00;99.90;;;;;;4891597;29;37575;-80
2023/05/17 18:51:32;;;;;;;8.13;2.22;;;12.00;99.90;;;;;;4912312;29;47439;-80
2023/05/17 18:54:02;;;;;;;10.10;2.22;;;11.90;99.90;;;;;;4914569;29;37883;-80
2023/05/17 18:56:31;;;;;;;14.13;2.50;;;11.90;99.90;;;;;;4886029;29;47311;-81
2023/05/17 18:58:59;;;;;;;15.55;2.17;;;11.80;99.90;;;;;;4908910;29;36524;-82
2023/05/17 19:01:26;;;;;;;12.45;2.35;;;11.70;99.90;;;;;;4883161;29;38072;-80
2023/05/17 19:03:55;;;;;;;16.23;2.55;;;11.70;99.90;;;;;;4915294;29;39938;-82
2023/05/17 19:06:30;;;;;;;9.77;2.08;;;11.60;99.90;;;;;;4915511;29;37786;-81
2023/05/17 19:09:03;;;;;;;13.23;2.80;;;11.60;99.90;;;;;;4902386;29;37226;-80
2023/05/17 19:11:34;;;;;;;10.98;1.80;;;11.50;99.90;;;;;;4896833;29;49097;-81
2023/05/17 19:14:00;;;;;;;26.45;4.78;;;11.50;99.90;;;;;;4882696;29;39452;-81
2023/05/17 19:16:26;;;;;;;14.25;2.70;;;11.50;99.90;;;;;;4912024;29;38469;-81
2023/05/17 19:18:52;;;;;;;14.35;2.03;;;11.40;99.90;;;;;;4891395;29;38964;-81
2023/05/17 19:21:20;;;;;;;14.45;2.42;;;11.40;99.90;;;;;;4894649;29;40351;-81
2023/05/17 19:23:46;;;;;;;11.50;2.95;;;11.40;99.90;;;;;;4893230;29;37951;-82